Neal Savage — WDG2633 — position and weather

sailwx.info

Track history (hours):
 
Tides and Currents Weather Stations Pressure Air Temp Water Temp Dewpoint Dewpoint Depression Visibility Wind Speed Wind Dir Waves Ship Positions

Neal Savage

Owner: Savage Inland Marine, Gibson, LA. More information available from US FCC via Universal Licensing System and Coast Guard Vessel Documentation Center.

Last reported at 2017-Oct-30 20:21 UTC. Time now 2017-Nov-19 17:27 UTC.
Position N 32°37' W 091°09'.
Warning: this ship's position is 19 days out of date.

Length 29 m; draft 3.3 m.

Type: Towing. MMSI: 367517630.

Date/timePositionNaut miles runAvg speedWind from/ knotsBaromVisibWave heightAir tempDewpointWater temp
2017-Oct-30 20:21N 32°37' W 091°09'2 4.6
2017-Oct-30 20:00N 32°35' W 091°08'1 2.6
2017-Oct-30 19:31N 32°34' W 091°07'0 0.8
2017-Oct-30 19:00N 32°34' W 091°06'1 1.4
2017-Oct-30 18:30N 32°34' W 091°06'2 3.9
2017-Oct-30 18:00N 32°32' W 091°06'2 5.0
2017-Oct-30 17:30N 32°29' W 091°07'2 4.6
2017-Oct-30 17:00N 32°27' W 091°05'1 1.9
2017-Oct-30 16:31N 32°27' W 091°04'2 4.7
2017-Oct-30 16:01N 32°26' W 091°02'2 4.3
2017-Oct-30 15:30N 32°25' W 090°60'2 3.8
2017-Oct-30 15:01N 32°23' W 090°60'2 3.9
2017-Oct-30 14:30N 32°21' W 090°59'5 4.6
2017-Oct-30 13:30N 32°20' W 090°54'2 4.8
2017-Oct-30 13:01N 32°18' W 090°55'2 4.4
2017-Oct-30 12:31N 32°16' W 090°57'2 4.1
2017-Oct-30 12:00N 32°15' W 090°59'2 4.9
2017-Oct-30 11:31N 32°12' W 090°59'2 4.5
2017-Oct-30 11:00N 32°10' W 091°00'2 4.0
2017-Oct-30 10:30N 32°08' W 091°00'2 3.8
2017-Oct-30 10:00N 32°07' W 091°02'3 4.6
2017-Oct-30 09:26N 32°08' W 091°05'1 3.5
2017-Oct-30 09:01N 32°07' W 091°07'5 4.4
2017-Oct-30 07:46N 32°02' W 091°04'2 5.5
2017-Oct-30 07:25N 32°00' W 091°05'  
2017-Oct-27 09:11N 29°51' W 091°55'1 4.7
2017-Oct-27 09:00N 29°51' W 091°56'2 4.7
2017-Oct-27 08:30N 29°50' W 091°58'2 4.6
2017-Oct-27 08:01N 29°49' W 092°01'2 4.6
2017-Oct-27 07:30N 29°49' W 092°03'2 4.9
2017-Oct-27 07:00N 29°48' W 092°06'2 4.0
2017-Oct-27 06:31N 29°47' W 092°08'1 1.4
2017-Oct-27 06:00N 29°47' W 092°09'2 4.1
2017-Oct-27 05:30N 29°47' W 092°11'1 2.0
2017-Oct-27 05:00N 29°47' W 092°12'1 1.3
2017-Oct-27 04:30N 29°47' W 092°13'2 4.0
2017-Oct-27 04:00N 29°48' W 092°15'2 4.3
2017-Oct-27 03:30N 29°49' W 092°17'2 3.3
2017-Oct-27 03:00N 29°50' W 092°19'1 2.4
2017-Oct-27 02:28N 29°51' W 092°20'3 3.1
2017-Oct-27 01:38N 29°52' W 092°23'35 4.5
2017-Oct-26 17:56N 29°56' W 093°03'2 4.4
2017-Oct-26 17:30N 29°56' W 093°05'2 4.3
2017-Oct-26 16:59N 29°56' W 093°08'2 4.2
2017-Oct-26 16:30N 29°56' W 093°10'2 4.5
2017-Oct-26 16:00N 29°58' W 093°11'2 4.5
2017-Oct-26 15:31N 29°60' W 093°13'2 4.0
2017-Oct-26 15:01N 30°02' W 093°14'2 4.0
2017-Oct-26 14:30N 30°03' W 093°16'2 4.0
2017-Oct-26 14:00N 30°05' W 093°17'1 1.9
2017-Oct-26 13:30N 30°05' W 093°18'1 1.4
2017-Oct-26 13:01N 30°06' W 093°18'0 0.3
2017-Oct-26 12:30N 30°06' W 093°18'2 4.4
2017-Oct-26 12:01N 30°05' W 093°20'2 3.4
2017-Oct-26 11:30N 30°04' W 093°22'2 3.3
2017-Oct-26 11:00N 30°04' W 093°24'3 5.1
2017-Oct-26 10:30N 30°04' W 093°27'3 5.1
2017-Oct-26 10:00N 30°04' W 093°30'3 5.0
2017-Oct-26 09:30N 30°04' W 093°33'2 5.0
2017-Oct-26 09:00N 30°04' W 093°35'3 5.1
2017-Oct-26 08:31N 30°04' W 093°38'2 4.7
2017-Oct-26 08:00N 30°03' W 093°41'10 4.8
2017-Oct-26 06:01N 29°58' W 093°50'0 6.1
2017-Oct-26 06:00N 29°58' W 093°51'3 5.1
2017-Oct-26 05:30N 29°56' W 093°52'4 7.6
2017-Oct-26 05:00N 29°53' W 093°55'55 3.9
2017-Oct-25 14:55N 29°31' W 094°53'3 7.5
2017-Oct-25 14:30N 29°33' W 094°55'4 7.5
2017-Oct-25 14:00N 29°36' W 094°57'4 7.8
2017-Oct-25 13:30N 29°40' W 094°59'3 6.4
2017-Oct-25 13:00N 29°42' W 095°01'2 4.6
2017-Oct-25 12:30N 29°44' W 095°03'2 3.9
2017-Oct-25 11:53N 29°46' W 095°05'1 0.2
2017-Oct-25 06:51N 29°47' W 095°04'1 3.5
2017-Oct-25 06:30N 29°46' W 095°05'3 4.5
2017-Oct-25 05:50N 29°44' W 095°08'3 0.2
2017-Oct-24 15:11N 29°46' W 095°05'3 0.5
2017-Oct-24 09:19N 29°44' W 095°08'0 0.0
2017-Oct-24 09:00N 29°44' W 095°08'0 0.0
2017-Oct-24 08:30N 29°44' W 095°08'0 0.0
2017-Oct-24 07:59N 29°44' W 095°08'0 0.0
2017-Oct-24 07:30N 29°44' W 095°08'0 0.0
2017-Oct-24 07:00N 29°44' W 095°08'0 0.0
2017-Oct-24 06:29N 29°44' W 095°08'0 0.0
2017-Oct-24 05:46N 29°44' W 095°08'0 0.0
2017-Oct-24 05:26N 29°44' W 095°08'0 0.0
2017-Oct-24 04:36N 29°44' W 095°08'0 0.0
2017-Oct-24 04:30N 29°44' W 095°08'0 0.0
2017-Oct-24 04:00N 29°44' W 095°08'2 4.8
2017-Oct-24 03:30N 29°45' W 095°06'2 1.8
2017-Oct-24 02:23N 29°47' W 095°05'4 0.3
2017-Oct-23 12:38N 29°44' W 095°08'0 0.0
2017-Oct-23 12:11N 29°44' W 095°08'0 0.0
2017-Oct-23 11:42N 29°44' W 095°08'0 0.0
2017-Oct-23 11:28N 29°44' W 095°08'0 0.0
2017-Oct-23 11:00N 29°44' W 095°08'0 0.0
2017-Oct-23 10:30N 29°44' W 095°08'0 0.0
2017-Oct-23 10:00N 29°44' W 095°08'0 0.0
2017-Oct-23 09:30N 29°44' W 095°08'0 0.0
2017-Oct-23 09:00N 29°44' W 095°08'0 0.0
2017-Oct-23 08:30N 29°44' W 095°08'0 0.0
2017-Oct-23 08:00N 29°44' W 095°08'0 0.0
2017-Oct-23 07:30N 29°44' W 095°08'0 0.0
2017-Oct-23 07:00N 29°44' W 095°08'0 0.0
2017-Oct-23 06:31N 29°44' W 095°08'0 0.0
2017-Oct-23 05:56N 29°44' W 095°08'0 0.0
2017-Oct-23 05:30N 29°44' W 095°08'0 0.0
2017-Oct-23 03:55N 29°44' W 095°08'0 0.0
2017-Oct-23 03:30N 29°44' W 095°08'0 0.0
2017-Oct-23 02:59N 29°44' W 095°08'2 0.2
2017-Oct-22 14:59N 29°45' W 095°06'4 7.2
2017-Oct-22 14:25N 29°45' W 095°10'3 7.6
2017-Oct-22 13:59N 29°44' W 095°14'2 2.8
2017-Oct-22 13:26N 29°44' W 095°12'3 7.1
2017-Oct-22 13:00N 29°44' W 095°09'4 0.2
2017-Oct-21 18:25N 29°47' W 095°06'1 0.1
2017-Oct-21 13:56N 29°47' W 095°05'0 0.0
2017-Oct-21 13:22N 29°47' W 095°05'  
Track history (hours):
 
Tides and Currents Weather Stations Pressure Air Temp Water Temp Dewpoint Dewpoint Depression Visibility Wind Speed Wind Dir Waves Ship Positions

Neal Savage

Owner: Savage Inland Marine, Gibson, LA. More information available from US FCC via Universal Licensing System and Coast Guard Vessel Documentation Center.

Last reported at 2017-Oct-30 20:21 UTC. Time now 2017-Nov-19 17:27 UTC.
Position N 32°37' W 091°09'.
Warning: this ship's position is 19 days out of date.

Length 29 m; draft 3.3 m.

Type: Towing. MMSI: 367517630.

Date/timePositionNaut miles runAvg speedWind from/ knotsBaromVisibWave heightAir tempDewpointWater temp
2017-Oct-30 20:21N 32°37' W 091°09'2 4.6
2017-Oct-30 20:00N 32°35' W 091°08'1 2.6
2017-Oct-30 19:31N 32°34' W 091°07'0 0.8
2017-Oct-30 19:00N 32°34' W 091°06'1 1.4
2017-Oct-30 18:30N 32°34' W 091°06'2 3.9
2017-Oct-30 18:00N 32°32' W 091°06'2 5.0
2017-Oct-30 17:30N 32°29' W 091°07'2 4.6
2017-Oct-30 17:00N 32°27' W 091°05'1 1.9
2017-Oct-30 16:31N 32°27' W 091°04'2 4.7
2017-Oct-30 16:01N 32°26' W 091°02'2 4.3
2017-Oct-30 15:30N 32°25' W 090°60'2 3.8
2017-Oct-30 15:01N 32°23' W 090°60'2 3.9
2017-Oct-30 14:30N 32°21' W 090°59'5 4.6
2017-Oct-30 13:30N 32°20' W 090°54'2 4.8
2017-Oct-30 13:01N 32°18' W 090°55'2 4.4
2017-Oct-30 12:31N 32°16' W 090°57'2 4.1
2017-Oct-30 12:00N 32°15' W 090°59'2 4.9
2017-Oct-30 11:31N 32°12' W 090°59'2 4.5
2017-Oct-30 11:00N 32°10' W 091°00'2 4.0
2017-Oct-30 10:30N 32°08' W 091°00'2 3.8
2017-Oct-30 10:00N 32°07' W 091°02'3 4.6
2017-Oct-30 09:26N 32°08' W 091°05'1 3.5
2017-Oct-30 09:01N 32°07' W 091°07'5 4.4
2017-Oct-30 07:46N 32°02' W 091°04'2 5.5
2017-Oct-30 07:25N 32°00' W 091°05'  
2017-Oct-27 09:11N 29°51' W 091°55'1 4.7
2017-Oct-27 09:00N 29°51' W 091°56'2 4.7
2017-Oct-27 08:30N 29°50' W 091°58'2 4.6
2017-Oct-27 08:01N 29°49' W 092°01'2 4.6
2017-Oct-27 07:30N 29°49' W 092°03'2 4.9
2017-Oct-27 07:00N 29°48' W 092°06'2 4.0
2017-Oct-27 06:31N 29°47' W 092°08'1 1.4
2017-Oct-27 06:00N 29°47' W 092°09'2 4.1
2017-Oct-27 05:30N 29°47' W 092°11'1 2.0
2017-Oct-27 05:00N 29°47' W 092°12'1 1.3
2017-Oct-27 04:30N 29°47' W 092°13'2 4.0
2017-Oct-27 04:00N 29°48' W 092°15'2 4.3
2017-Oct-27 03:30N 29°49' W 092°17'2 3.3
2017-Oct-27 03:00N 29°50' W 092°19'1 2.4
2017-Oct-27 02:28N 29°51' W 092°20'3 3.1
2017-Oct-27 01:38N 29°52' W 092°23'35 4.5
2017-Oct-26 17:56N 29°56' W 093°03'2 4.4
2017-Oct-26 17:30N 29°56' W 093°05'2 4.3
2017-Oct-26 16:59N 29°56' W 093°08'2 4.2
2017-Oct-26 16:30N 29°56' W 093°10'2 4.5
2017-Oct-26 16:00N 29°58' W 093°11'2 4.5
2017-Oct-26 15:31N 29°60' W 093°13'2 4.0
2017-Oct-26 15:01N 30°02' W 093°14'2 4.0
2017-Oct-26 14:30N 30°03' W 093°16'2 4.0
2017-Oct-26 14:00N 30°05' W 093°17'1 1.9
2017-Oct-26 13:30N 30°05' W 093°18'1 1.4
2017-Oct-26 13:01N 30°06' W 093°18'0 0.3
2017-Oct-26 12:30N 30°06' W 093°18'2 4.4
2017-Oct-26 12:01N 30°05' W 093°20'2 3.4
2017-Oct-26 11:30N 30°04' W 093°22'2 3.3
2017-Oct-26 11:00N 30°04' W 093°24'3 5.1
2017-Oct-26 10:30N 30°04' W 093°27'3 5.1
2017-Oct-26 10:00N 30°04' W 093°30'3 5.0
2017-Oct-26 09:30N 30°04' W 093°33'2 5.0
2017-Oct-26 09:00N 30°04' W 093°35'3 5.1
2017-Oct-26 08:31N 30°04' W 093°38'2 4.7
2017-Oct-26 08:00N 30°03' W 093°41'10 4.8
2017-Oct-26 06:01N 29°58' W 093°50'0 6.1
2017-Oct-26 06:00N 29°58' W 093°51'3 5.1
2017-Oct-26 05:30N 29°56' W 093°52'4 7.6
2017-Oct-26 05:00N 29°53' W 093°55'55 3.9
2017-Oct-25 14:55N 29°31' W 094°53'3 7.5
2017-Oct-25 14:30N 29°33' W 094°55'4 7.5
2017-Oct-25 14:00N 29°36' W 094°57'4 7.8
2017-Oct-25 13:30N 29°40' W 094°59'3 6.4
2017-Oct-25 13:00N 29°42' W 095°01'2 4.6
2017-Oct-25 12:30N 29°44' W 095°03'2 3.9
2017-Oct-25 11:53N 29°46' W 095°05'1 0.2
2017-Oct-25 06:51N 29°47' W 095°04'1 3.5
2017-Oct-25 06:30N 29°46' W 095°05'3 4.5
2017-Oct-25 05:50N 29°44' W 095°08'3 0.2
2017-Oct-24 15:11N 29°46' W 095°05'3 0.5
2017-Oct-24 09:19N 29°44' W 095°08'0 0.0
2017-Oct-24 09:00N 29°44' W 095°08'0 0.0
2017-Oct-24 08:30N 29°44' W 095°08'0 0.0
2017-Oct-24 07:59N 29°44' W 095°08'0 0.0
2017-Oct-24 07:30N 29°44' W 095°08'0 0.0
2017-Oct-24 07:00N 29°44' W 095°08'0 0.0
2017-Oct-24 06:29N 29°44' W 095°08'0 0.0
2017-Oct-24 05:46N 29°44' W 095°08'0 0.0
2017-Oct-24 05:26N 29°44' W 095°08'0 0.0
2017-Oct-24 04:36N 29°44' W 095°08'0 0.0
2017-Oct-24 04:30N 29°44' W 095°08'0 0.0
2017-Oct-24 04:00N 29°44' W 095°08'2 4.8
2017-Oct-24 03:30N 29°45' W 095°06'2 1.8
2017-Oct-24 02:23N 29°47' W 095°05'4 0.3
2017-Oct-23 12:38N 29°44' W 095°08'0 0.0
2017-Oct-23 12:11N 29°44' W 095°08'0 0.0
2017-Oct-23 11:42N 29°44' W 095°08'0 0.0
2017-Oct-23 11:28N 29°44' W 095°08'0 0.0
2017-Oct-23 11:00N 29°44' W 095°08'0 0.0
2017-Oct-23 10:30N 29°44' W 095°08'0 0.0
2017-Oct-23 10:00N 29°44' W 095°08'0 0.0
2017-Oct-23 09:30N 29°44' W 095°08'0 0.0
2017-Oct-23 09:00N 29°44' W 095°08'0 0.0
2017-Oct-23 08:30N 29°44' W 095°08'0 0.0
2017-Oct-23 08:00N 29°44' W 095°08'0 0.0
2017-Oct-23 07:30N 29°44' W 095°08'0 0.0
2017-Oct-23 07:00N 29°44' W 095°08'0 0.0
2017-Oct-23 06:31N 29°44' W 095°08'0 0.0
2017-Oct-23 05:56N 29°44' W 095°08'0 0.0
2017-Oct-23 05:30N 29°44' W 095°08'0 0.0
2017-Oct-23 03:55N 29°44' W 095°08'0 0.0
2017-Oct-23 03:30N 29°44' W 095°08'0 0.0
2017-Oct-23 02:59N 29°44' W 095°08'2 0.2
2017-Oct-22 14:59N 29°45' W 095°06'4 7.2
2017-Oct-22 14:25N 29°45' W 095°10'3 7.6
2017-Oct-22 13:59N 29°44' W 095°14'2 2.8
2017-Oct-22 13:26N 29°44' W 095°12'3 7.1
2017-Oct-22 13:00N 29°44' W 095°09'4 0.2
2017-Oct-21 18:25N 29°47' W 095°06'1 0.1
2017-Oct-21 13:56N 29°47' W 095°05'0 0.0
2017-Oct-21 13:22N 29°47' W 095°05'  

Dump ship's entire track history